Time;durP1;ratioP1;P1;durP2;ratioP2;P2;SDS_P1;SDS_P2;PMS_P1;PMS_P2;Temp;Humidity;BMP_temperature;BMP_pressure;BME280_temperature;BME280_humidity;BME280_pressure;Samples;Min_cycle;Max_cycle;Signal;HPM_P1;HPM_P2
2022/03/05 00:01:53;;;;;;;;;;;2.10;99.90;;;;;;5072220;28;19925;-73
2022/03/05 00:04:19;;;;;;;;;;;2.10;99.90;;;;;;5071909;28;19924;-74
2022/03/05 00:06:48;;;;;;;;;;;2.10;99.90;;;;;;5071215;28;19932;-73
2022/03/05 00:09:14;;;;;;;;;;;2.10;99.90;;;;;;5071641;28;19928;-73
2022/03/05 00:11:42;;;;;;;;;;;2.10;99.90;;;;;;5071271;28;19928;-75
2022/03/05 00:14:12;;;;;;;;;;;2.00;99.90;;;;;;5071911;28;19975;-73
2022/03/05 00:16:39;;;;;;;;;;;2.00;99.90;;;;;;5088420;28;19924;-74
2022/03/05 00:19:06;;;;;;;;;;;2.00;99.90;;;;;;5071208;28;20334;-71
2022/03/05 00:21:33;;;;;;;;;;;2.00;99.90;;;;;;5071743;28;19925;-74
2022/03/05 00:24:00;;;;;;;;;;;2.00;99.90;;;;;;5071413;28;19924;-73
2022/03/05 00:26:27;;;;;;;;;;;2.00;99.90;;;;;;5071256;28;19924;-74
2022/03/05 00:28:54;;;;;;;;;;;2.00;99.90;;;;;;5071251;28;19925;-73
2022/03/05 00:31:22;;;;;;;;;;;1.90;99.90;;;;;;5071114;28;19924;-74
2022/03/05 00:33:49;;;;;;;;;;;1.90;99.90;;;;;;5071160;28;19932;-72
2022/03/05 00:36:16;;;;;;;;;;;1.90;99.90;;;;;;5070578;28;19925;-72
2022/03/05 00:38:43;;;;;;;;;;;1.90;99.90;;;;;;5071310;28;20379;-73
2022/03/05 00:41:10;;;;;;;;;;;1.80;99.90;;;;;;5071120;28;19925;-73
2022/03/05 00:43:37;;;;;;;;;;;1.80;99.90;;;;;;5071291;28;19924;-72
2022/03/05 00:46:04;;;;;;;;;;;1.80;99.90;;;;;;5071211;28;19924;-74
2022/03/05 00:48:32;;;;;;;;;;;1.80;99.90;;;;;;5071186;28;20044;-73
2022/03/05 00:50:59;;;;;;;;;;;1.70;99.90;;;;;;5070811;28;19932;-74
2022/03/05 00:53:26;;;;;;;;;;;1.70;99.90;;;;;;5071292;28;19924;-74
2022/03/05 00:55:53;;;;;;;;;;;1.70;99.90;;;;;;5070756;28;19924;-74
2022/03/05 00:58:19;;;;;;;;;;;1.60;99.90;;;;;;5071162;28;19924;-74
2022/03/05 01:00:47;;;;;;;;;;;1.60;99.90;;;;;;5070769;28;19964;-74
2022/03/05 01:03:14;;;;;;;;;;;1.60;99.90;;;;;;5070774;28;19932;-74
2022/03/05 01:05:42;;;;;;;;;;;1.50;99.90;;;;;;5070884;28;19925;-73
2022/03/05 01:08:10;;;;;;;;;;;1.50;99.90;;;;;;5070851;28;19924;-74
2022/03/05 01:10:37;;;;;;;;;;;1.50;99.90;;;;;;5070437;28;19930;-74
2022/03/05 01:13:04;;;;;;;;;;;1.50;99.90;;;;;;5070491;28;20300;-71
2022/03/05 01:15:31;;;;;;;;;;;1.40;99.90;;;;;;5070679;28;19924;-74
2022/03/05 01:17:58;;;;;;;;;;;1.40;99.90;;;;;;5070517;28;19928;-73
2022/03/05 01:20:25;;;;;;;;;;;1.40;99.90;;;;;;5070230;28;20371;-72
2022/03/05 01:22:53;;;;;;;;;;;1.40;99.90;;;;;;5070609;28;20291;-73
2022/03/05 01:25:20;;;;;;;;;;;1.30;99.90;;;;;;5070368;28;19925;-73
2022/03/05 01:27:47;;;;;;;;;;;1.30;99.90;;;;;;5070324;28;19925;-74
2022/03/05 01:30:14;;;;;;;;;;;1.30;99.90;;;;;;5070323;28;19924;-71
2022/03/05 01:32:42;;;;;;;;;;;1.30;99.90;;;;;;5070712;28;19956;-73
2022/03/05 01:35:09;;;;;;;;;;;1.20;99.90;;;;;;5070450;28;20303;-73
2022/03/05 01:37:36;;;;;;;;;;;1.20;99.90;;;;;;5070147;28;19946;-73
2022/03/05 01:40:05;;;;;;;;;;;1.10;99.90;;;;;;5070126;28;19925;-73
2022/03/05 01:42:32;;;;;;;;;;;1.10;99.90;;;;;;5069303;28;19940;-74
2022/03/05 01:44:59;;;;;;;;;;;1.10;99.90;;;;;;5069935;28;19928;-71
2022/03/05 01:47:26;;;;;;;;;;;1.10;99.90;;;;;;5071532;28;19947;-74
2022/03/05 01:49:52;;;;;;;;;;;1.10;99.90;;;;;;5072395;28;20358;-74
2022/03/05 01:52:19;;;;;;;;;;;1.00;99.90;;;;;;5073449;28;19924;-74
2022/03/05 01:54:46;;;;;;;;;;;1.00;99.90;;;;;;5073470;28;19928;-74
2022/03/05 01:57:14;;;;;;;;;;;1.00;99.90;;;;;;5073267;28;20358;-74
2022/03/05 01:59:43;;;;;;;;;;;1.00;99.90;;;;;;5072719;28;20330;-73
2022/03/05 02:02:10;;;;;;;;;;;1.00;99.90;;;;;;5073556;28;19932;-74
2022/03/05 02:04:37;;;;;;;;;;;1.00;99.90;;;;;;5073498;28;19932;-74
2022/03/05 02:07:04;;;;;;;;;;;0.90;99.90;;;;;;5073085;28;19924;-71
2022/03/05 02:09:31;;;;;;;;;;;0.90;99.90;;;;;;5073215;28;19932;-74
2022/03/05 02:11:58;;;;;;;;;;;0.90;99.90;;;;;;5073252;28;19974;-74
2022/03/05 02:14:26;;;;;;;;;;;0.90;99.90;;;;;;5071979;28;19924;-74
2022/03/05 02:16:53;;;;;;;;;;;0.80;99.90;;;;;;5071328;28;19931;-71
2022/03/05 02:19:20;;;;;;;;;;;0.80;99.90;;;;;;5072416;28;19933;-73
2022/03/05 02:21:48;;;;;;;;;;;0.80;99.90;;;;;;5073322;28;19967;-73
2022/03/05 02:24:31;;;;;;;;;;;0.70;99.90;;;;;;5073157;28;19931;-73
2022/03/05 02:26:58;;;;;;;;;;;0.70;99.90;;;;;;5090149;28;19931;-73
2022/03/05 02:29:24;;;;;;;;;;;0.70;99.90;;;;;;5072606;28;19925;-73
2022/03/05 02:31:52;;;;;;;;;;;0.70;99.90;;;;;;5072185;28;19928;-73
2022/03/05 02:34:19;;;;;;;;;;;0.60;99.90;;;;;;5072613;28;19985;-71
2022/03/05 02:36:47;;;;;;;;;;;0.60;99.90;;;;;;5072883;28;19928;-73
2022/03/05 02:39:14;;;;;;;;;;;0.60;99.90;;;;;;5072826;28;19931;-72
2022/03/05 02:41:41;;;;;;;;;;;0.50;99.90;;;;;;5072595;28;19924;-72
2022/03/05 02:44:08;;;;;;;;;;;0.50;99.90;;;;;;5072610;28;19925;-74
2022/03/05 02:46:35;;;;;;;;;;;0.50;99.90;;;;;;5072411;28;19925;-73
2022/03/05 02:49:03;;;;;;;;;;;0.40;99.90;;;;;;5071682;28;19935;-73
2022/03/05 02:51:30;;;;;;;;;;;0.40;99.90;;;;;;5072492;28;19928;-74
2022/03/05 02:53:58;;;;;;;;;;;0.30;99.90;;;;;;5072406;28;19925;-73
2022/03/05 02:56:25;;;;;;;;;;;0.30;99.90;;;;;;5072329;28;20273;-72
2022/03/05 02:58:51;;;;;;;;;;;0.30;99.90;;;;;;5071252;28;19940;-72
2022/03/05 03:01:18;;;;;;;;;;;0.30;99.90;;;;;;5071976;28;20346;-73
2022/03/05 03:03:45;;;;;;;;;;;0.20;99.90;;;;;;5072076;28;19932;-73
2022/03/05 03:06:12;;;;;;;;;;;0.20;99.90;;;;;;5071897;28;19925;-71
2022/03/05 03:08:39;;;;;;;;;;;0.20;99.90;;;;;;5071968;28;19925;-75
2022/03/05 03:11:07;;;;;;;;;;;0.20;99.90;;;;;;5071699;28;19931;-73
2022/03/05 03:13:34;;;;;;;;;;;0.10;99.90;;;;;;5071910;28;20430;-70
2022/03/05 03:16:03;;;;;;;;;;;0.20;99.90;;;;;;5069711;28;19925;-73
2022/03/05 03:18:30;;;;;;;;;;;0.10;99.90;;;;;;5071205;28;19924;-74
2022/03/05 03:20:56;;;;;;;;;;;0.10;99.90;;;;;;5071461;28;19931;-73
2022/03/05 03:23:23;;;;;;;;;;;0.10;99.90;;;;;;5071827;28;20322;-73
2022/03/05 03:25:50;;;;;;;;;;;0.10;99.90;;;;;;5071644;28;19929;-72
2022/03/05 03:28:23;;;;;;;;;;;0.10;99.90;;;;;;5071625;28;19924;-73
2022/03/05 03:30:49;;;;;;;;;;;0.10;99.90;;;;;;5071202;28;19932;-73
2022/03/05 03:33:16;;;;;;;;;;;0.00;99.90;;;;;;5071819;28;19928;-73
2022/03/05 03:35:43;;;;;;;;;;;0.00;99.90;;;;;;5071279;28;19928;-74
2022/03/05 03:38:10;;;;;;;;;;;0.10;99.90;;;;;;5071599;28;19928;-73
2022/03/05 03:40:37;;;;;;;;;;;0.00;99.90;;;;;;5071189;28;19928;-73
2022/03/05 03:43:04;;;;;;;;;;;0.00;99.90;;;;;;5071426;28;19931;-74
2022/03/05 03:45:33;;;;;;;;;;;0.00;99.90;;;;;;5071455;28;19924;-73
2022/03/05 03:48:00;;;;;;;;;;;0.00;99.90;;;;;;5071209;28;19928;-73
2022/03/05 03:50:27;;;;;;;;;;;0.00;99.90;;;;;;5071018;28;19929;-72
2022/03/05 03:52:54;;;;;;;;;;;0.00;99.90;;;;;;5071359;28;19925;-70
2022/03/05 03:55:22;;;;;;;;;;;-0.10;99.90;;;;;;5071205;28;20302;-73
2022/03/05 03:57:49;;;;;;;;;;;-0.10;99.90;;;;;;5070632;28;19931;-72
2022/03/05 04:00:17;;;;;;;;;;;-0.20;99.90;;;;;;5070437;28;19986;-73
2022/03/05 04:02:46;;;;;;;;;;;-0.20;99.90;;;;;;5071115;28;19932;-74
2022/03/05 04:05:13;;;;;;;;;;;-0.20;99.90;;;;;;5070980;28;20285;-70
2022/03/05 04:10:24;;;;;;;;;;;-0.30;99.90;;;;;;5069744;28;20284;-71
2022/03/05 04:12:51;;;;;;;;;;;-0.30;99.90;;;;;;5071641;28;19924;-74
2022/03/05 04:15:19;;;;;;;;;;;-0.30;99.90;;;;;;5069496;28;20395;-73
2022/03/05 04:17:47;;;;;;;;;;;-0.30;99.90;;;;;;5070384;28;20338;-74
2022/03/05 04:20:14;;;;;;;;;;;-0.30;99.90;;;;;;5070994;28;19947;-72
2022/03/05 04:22:41;;;;;;;;;;;-0.30;99.90;;;;;;5071431;28;19925;-73
2022/03/05 04:25:08;;;;;;;;;;;-0.40;99.90;;;;;;5071430;28;20292;-72
2022/03/05 04:27:34;;;;;;;;;;;-0.40;99.90;;;;;;5071361;28;20387;-73
2022/03/05 04:30:02;;;;;;;;;;;-0.40;99.90;;;;;;5087860;28;20540;-73
2022/03/05 04:32:28;;;;;;;;;;;-0.40;99.90;;;;;;5071607;28;19924;-73
2022/03/05 04:34:56;;;;;;;;;;;-0.50;99.90;;;;;;5071312;28;19925;-70
2022/03/05 04:37:23;;;;;;;;;;;-0.50;99.90;;;;;;5071223;28;20354;-73
2022/03/05 04:39:50;;;;;;;;;;;-0.50;99.90;;;;;;5071040;28;19929;-73
2022/03/05 04:42:17;;;;;;;;;;;-0.60;99.90;;;;;;5071179;28;19924;-73
2022/03/05 04:44:44;;;;;;;;;;;-0.60;99.90;;;;;;5071384;28;19928;-73
2022/03/05 04:47:11;;;;;;;;;;;-0.60;99.90;;;;;;5070958;28;19928;-74
2022/03/05 04:49:37;;;;;;;;;;;-0.60;99.90;;;;;;5070798;28;20015;-73
2022/03/05 04:52:06;;;;;;;;;;;-0.60;99.90;;;;;;5071104;28;19925;-73
2022/03/05 04:54:33;;;;;;;;;;;-0.60;99.90;;;;;;5071364;28;19924;-73
2022/03/05 04:57:00;;;;;;;;;;;-0.60;99.90;;;;;;5070934;28;19925;-73
2022/03/05 04:59:27;;;;;;;;;;;-0.60;99.90;;;;;;5070420;28;19924;-71
2022/03/05 05:01:53;;;;;;;;;;;-0.70;99.90;;;;;;5071180;28;19947;-73
2022/03/05 05:04:20;;;;;;;;;;;-0.70;99.90;;;;;;5071234;28;19924;-73
2022/03/05 05:06:47;;;;;;;;;;;-0.70;99.90;;;;;;5070858;28;19959;-73
2022/03/05 05:09:15;;;;;;;;;;;-0.70;99.90;;;;;;5070701;28;19933;-73
2022/03/05 05:11:43;;;;;;;;;;;-0.70;99.90;;;;;;5071139;28;19928;-73
2022/03/05 05:14:10;;;;;;;;;;;-0.80;99.90;;;;;;5071101;28;19928;-73
2022/03/05 05:16:37;;;;;;;;;;;-0.80;99.90;;;;;;5070537;28;19931;-72
2022/03/05 05:21:48;;;;;;;;;;;-0.80;99.90;;;;;;5070779;28;20391;-71
2022/03/05 05:24:17;;;;;;;;;;;-0.80;99.90;;;;;;5070867;28;19931;-73
2022/03/05 05:26:44;;;;;;;;;;;-0.80;99.90;;;;;;5071082;28;19928;-73
2022/03/05 05:29:13;;;;;;;;;;;-0.80;99.90;;;;;;5070683;28;19928;-72
2022/03/05 05:31:40;;;;;;;;;;;-0.80;99.90;;;;;;5071305;28;19924;-73
2022/03/05 05:34:06;;;;;;;;;;;-0.80;99.90;;;;;;5070518;28;19931;-73
2022/03/05 05:36:33;;;;;;;;;;;-0.80;99.90;;;;;;5070730;28;20327;-73
2022/03/05 05:39:00;;;;;;;;;;;-0.80;99.90;;;;;;5070179;28;19931;-73
2022/03/05 05:41:28;;;;;;;;;;;-0.80;99.90;;;;;;5070822;28;19925;-73
2022/03/05 05:43:55;;;;;;;;;;;-0.90;99.90;;;;;;5070703;28;19932;-72
2022/03/05 05:46:22;;;;;;;;;;;-0.80;99.90;;;;;;5097991;22;19931;-77
2022/03/05 05:48:48;;;;;;;;;;;-0.90;99.90;;;;;;5071954;28;19928;-74
2022/03/05 05:51:15;;;;;;;;;;;-0.80;99.90;;;;;;5073085;28;19928;-77
2022/03/05 05:53:42;;;;;;;;;;;-0.80;99.90;;;;;;5089730;28;19932;-73
2022/03/05 05:56:09;;;;;;;;;;;-0.80;99.90;;;;;;5091083;28;19936;-77
2022/03/05 05:58:37;;;;;;;;;;;-0.80;99.90;;;;;;5073034;28;19924;-77
2022/03/05 06:01:04;;;;;;;;;;;-0.90;99.90;;;;;;5089316;28;19933;-73
2022/03/05 06:03:30;;;;;;;;;;;-0.90;99.90;;;;;;5063467;28;20288;-79
2022/03/05 06:05:57;;;;;;;;;;;-0.90;99.90;;;;;;5073049;28;19928;-76
2022/03/05 06:08:24;;;;;;;;;;;-0.90;99.90;;;;;;5072928;28;19963;-74
2022/03/05 06:10:51;;;;;;;;;;;-0.90;99.90;;;;;;5069051;28;19924;-78
2022/03/05 06:13:18;;;;;;;;;;;-0.90;99.90;;;;;;5069828;28;20367;-75
2022/03/05 06:15:46;;;;;;;;;;;-0.80;99.90;;;;;;5070562;28;19986;-75
2022/03/05 06:18:13;;;;;;;;;;;-0.90;99.90;;;;;;5072620;28;19924;-75
2022/03/05 06:20:40;;;;;;;;;;;-0.90;99.90;;;;;;5058307;28;19924;-78
2022/03/05 06:23:07;;;;;;;;;;;-0.90;99.90;;;;;;5052410;28;19925;-77
2022/03/05 06:25:33;;;;;;;;;;;-0.90;99.90;;;;;;5052435;28;19928;-79
2022/03/05 06:28:01;;;;;;;;;;;-0.80;99.90;;;;;;5052839;28;20411;-77
2022/03/05 06:30:28;;;;;;;;;;;-0.80;99.90;;;;;;5052286;28;19936;-77
2022/03/05 06:32:56;;;;;;;;;;;-0.80;99.90;;;;;;5053640;28;19924;-77
2022/03/05 06:35:23;;;;;;;;;;;-0.80;99.90;;;;;;5056461;28;19989;-76
2022/03/05 06:37:50;;;;;;;;;;;-0.80;99.90;;;;;;5071472;28;19935;-77
2022/03/05 06:40:16;;;;;;;;;;;-0.80;99.90;;;;;;5075690;28;20280;-78
2022/03/05 06:42:45;;;;;;;;;;;-0.70;99.90;;;;;;5076443;28;19935;-75
2022/03/05 06:45:12;;;;;;;;;;;-0.70;99.90;;;;;;5076262;28;19950;-75
2022/03/05 06:47:39;;;;;;;;;;;-0.70;99.90;;;;;;5076087;28;19927;-77
2022/03/05 06:50:08;;;;;;;;;;;-0.70;99.90;;;;;;5075376;28;20298;-77
2022/03/05 06:52:34;;;;;;;;;;;-0.70;99.90;;;;;;5076048;28;19932;-74
2022/03/05 06:55:01;;;;;;;;;;;-0.60;99.90;;;;;;5076005;28;19927;-78
2022/03/05 06:57:28;;;;;;;;;;;-0.60;99.90;;;;;;5076144;28;19924;-77
2022/03/05 06:59:55;;;;;;;;;;;-0.60;99.90;;;;;;5075715;28;20359;-77
2022/03/05 07:02:22;;;;;;;;;;;-0.50;99.90;;;;;;5076213;28;20368;-77
2022/03/05 07:04:49;;;;;;;;;;;-0.50;99.90;;;;;;5076200;28;19924;-75
2022/03/05 07:07:18;;;;;;;;;;;-0.40;99.90;;;;;;5075738;28;19924;-76
2022/03/05 07:09:44;;;;;;;;;;;-0.30;99.90;;;;;;5075135;28;19931;-75
2022/03/05 07:12:11;;;;;;;;;;;-0.30;99.90;;;;;;5058616;28;19932;-76
2022/03/05 07:14:38;;;;;;;;;;;-0.20;99.90;;;;;;5073666;28;19951;-77
2022/03/05 07:17:05;;;;;;;;;;;-0.20;99.90;;;;;;5062635;28;19932;-77
2022/03/05 07:19:32;;;;;;;;;;;-0.10;99.90;;;;;;5063995;28;19953;-76
2022/03/05 07:21:58;;;;;;;;;;;0.00;99.90;;;;;;5055545;28;19978;-76
2022/03/05 07:24:27;;;;;;;;;;;0.00;99.90;;;;;;5055719;28;20339;-77
2022/03/05 07:26:54;;;;;;;;;;;0.10;99.90;;;;;;5055854;28;19924;-76
2022/03/05 07:29:20;;;;;;;;;;;0.20;99.90;;;;;;5054949;28;19948;-77
2022/03/05 07:31:47;;;;;;;;;;;0.30;99.90;;;;;;5055641;28;19924;-78
2022/03/05 07:34:14;;;;;;;;;;;0.30;99.90;;;;;;5055437;28;19924;-75
2022/03/05 07:36:41;;;;;;;;;;;0.40;99.90;;;;;;5055325;28;19924;-77
2022/03/05 07:39:08;;;;;;;;;;;0.50;99.90;;;;;;5054397;28;20035;-76
2022/03/05 07:41:36;;;;;;;;;;;0.60;99.90;;;;;;5055387;28;19924;-76
2022/03/05 07:44:03;;;;;;;;;;;0.70;99.90;;;;;;5055125;28;19925;-77
2022/03/05 07:46:30;;;;;;;;;;;0.80;99.90;;;;;;5054464;28;19928;-77
2022/03/05 07:48:57;;;;;;;;;;;0.90;99.90;;;;;;5054206;28;19925;-73
2022/03/05 07:51:24;;;;;;;;;;;0.90;99.90;;;;;;5055322;28;20430;-77
2022/03/05 07:53:51;;;;;;;;;;;1.00;99.90;;;;;;5062535;28;19931;-77
2022/03/05 07:56:17;;;;;;;;;;;1.10;99.90;;;;;;5075076;28;19943;-77
2022/03/05 07:58:46;;;;;;;;;;;1.10;99.90;;;;;;5074444;28;19924;-76
2022/03/05 08:01:12;;;;;;;;;;;1.20;99.90;;;;;;5074843;28;19924;-77
2022/03/05 08:03:39;;;;;;;;;;;1.40;99.90;;;;;;5073274;28;19924;-77
2022/03/05 08:06:06;;;;;;;;;;;1.50;99.90;;;;;;5074430;28;19924;-76
2022/03/05 08:08:33;;;;;;;;;;;1.50;99.90;;;;;;5074586;28;19936;-77
2022/03/05 08:11:00;;;;;;;;;;;1.60;99.90;;;;;;5066279;28;20406;-76
2022/03/05 08:13:29;;;;;;;;;;;1.60;99.90;;;;;;5054712;28;19925;-77
2022/03/05 08:15:58;;;;;;;;;;;1.70;99.90;;;;;;5054388;28;19971;-77
2022/03/05 08:18:25;;;;;;;;;;;1.80;99.90;;;;;;5054239;28;19928;-78
2022/03/05 08:20:52;;;;;;;;;;;1.80;99.90;;;;;;5053771;28;19924;-76
2022/03/05 08:23:18;;;;;;;;;;;1.90;99.90;;;;;;5054093;28;19935;-74
2022/03/05 08:25:45;;;;;;;;;;;1.90;99.90;;;;;;5054318;28;19924;-77
2022/03/05 08:28:12;;;;;;;;;;;2.00;99.90;;;;;;5054944;28;19925;-77
2022/03/05 08:30:40;;;;;;;;;;;2.10;99.90;;;;;;5053512;28;19928;-77
2022/03/05 08:33:08;;;;;;;;;;;2.20;99.90;;;;;;5054026;28;19925;-78
2022/03/05 08:35:35;;;;;;;;;;;2.20;99.90;;;;;;5053885;28;19928;-78
2022/03/05 08:38:01;;;;;;;;;;;2.20;99.90;;;;;;5053700;28;19932;-77
2022/03/05 08:40:28;;;;;;;;;;;2.30;99.90;;;;;;5053378;28;19924;-77
2022/03/05 08:42:57;;;;;;;;;;;2.40;99.90;;;;;;5053560;28;20429;-77
2022/03/05 08:45:24;;;;;;;;;;;2.40;99.90;;;;;;5053636;28;19931;-77
2022/03/05 08:47:50;;;;;;;;;;;2.50;99.90;;;;;;5053542;28;20356;-77
2022/03/05 08:50:19;;;;;;;;;;;2.70;99.90;;;;;;5053348;28;20334;-77
2022/03/05 08:52:46;;;;;;;;;;;2.70;99.90;;;;;;5053384;28;19928;-78
2022/03/05 08:55:16;;;;;;;;;;;2.80;99.90;;;;;;5053613;28;19924;-77
2022/03/05 08:57:43;;;;;;;;;;;2.90;99.90;;;;;;5054929;28;20031;-75
2022/03/05 09:00:11;;;;;;;;;;;2.90;99.90;;;;;;5055305;28;19924;-77
2022/03/05 09:02:38;;;;;;;;;;;3.10;99.90;;;;;;5055083;28;20356;-78
2022/03/05 09:05:05;;;;;;;;;;;3.20;99.90;;;;;;5055583;28;19985;-77
2022/03/05 09:07:34;;;;;;;;;;;3.20;99.90;;;;;;5055519;28;19924;-78
2022/03/05 09:10:00;;;;;;;;;;;3.20;99.90;;;;;;5055027;28;19925;-77
2022/03/05 09:12:27;;;;;;;;;;;3.30;99.90;;;;;;5074044;28;19974;-77
2022/03/05 09:14:54;;;;;;;;;;;3.40;99.90;;;;;;5075025;28;19924;-76
2022/03/05 09:17:21;;;;;;;;;;;3.50;99.90;;;;;;5075783;28;19931;-75
2022/03/05 09:19:48;;;;;;;;;;;3.60;99.90;;;;;;5074472;28;19949;-77
2022/03/05 09:22:14;;;;;;;;;;;3.60;99.90;;;;;;5073442;28;19969;-76
2022/03/05 09:24:43;;;;;;;;;;;3.70;99.90;;;;;;5073446;28;19924;-78
2022/03/05 09:27:10;;;;;;;;;;;3.80;99.90;;;;;;5073313;28;19935;-78
2022/03/05 09:29:37;;;;;;;;;;;3.90;99.90;;;;;;5072430;28;20015;-76
2022/03/05 09:32:04;;;;;;;;;;;3.90;99.90;;;;;;5073505;28;19924;-75
2022/03/05 09:34:31;;;;;;;;;;;4.00;99.90;;;;;;5073081;28;20026;-77
2022/03/05 09:36:59;;;;;;;;;;;4.10;99.90;;;;;;5073318;28;19931;-77
2022/03/05 09:39:26;;;;;;;;;;;4.20;99.90;;;;;;5072529;28;19953;-77
2022/03/05 09:41:54;;;;;;;;;;;4.30;99.90;;;;;;5073209;28;19924;-79
2022/03/05 09:44:21;;;;;;;;;;;4.40;99.90;;;;;;5073208;28;19931;-78
2022/03/05 09:46:48;;;;;;;;;;;4.50;99.90;;;;;;5072711;28;19928;-77
2022/03/05 09:49:16;;;;;;;;;;;4.60;99.90;;;;;;5072487;28;20283;-75
2022/03/05 09:51:42;;;;;;;;;;;4.70;99.90;;;;;;5073124;28;19951;-77
2022/03/05 09:54:09;;;;;;;;;;;4.80;99.90;;;;;;5073233;28;19963;-79
2022/03/05 09:56:37;;;;;;;;;;;5.00;99.90;;;;;;5072712;28;19928;-78
2022/03/05 09:59:05;;;;;;;;;;;5.10;99.90;;;;;;5072168;28;19924;-78
2022/03/05 10:01:33;;;;;;;;;;;5.20;99.90;;;;;;5073045;28;19924;-78
2022/03/05 10:04:02;;;;;;;;;;;5.30;99.90;;;;;;5073060;28;19928;-77
2022/03/05 10:06:28;;;;;;;;;;;5.40;99.90;;;;;;5072858;28;20019;-77
2022/03/05 10:08:56;;;;;;;;;;;5.50;99.90;;;;;;5074996;28;19950;-77
2022/03/05 10:11:23;;;;;;;;;;;5.70;99.90;;;;;;5066416;28;20023;-78
2022/03/05 10:13:50;;;;;;;;;;;5.70;99.90;;;;;;5057032;28;19969;-79
2022/03/05 10:16:25;;;;;;;;;;;6.00;99.90;;;;;;5056679;28;19925;-79
2022/03/05 10:18:53;;;;;;;;;;;6.10;99.90;;;;;;5072882;28;19978;-78
2022/03/05 10:21:26;;;;;;;;;;;6.20;99.90;;;;;;5073776;28;20280;-77
2022/03/05 10:24:03;;;;;;;;;;;6.40;99.90;;;;;;5056686;28;19925;-78
2022/03/05 10:26:49;;;;;;;;;;;6.40;99.90;;;;;;5056649;28;19924;-76
2022/03/05 10:29:20;;;;;;;;;;;6.50;99.90;;;;;;5056109;28;19931;-77
2022/03/05 10:32:02;;;;;;;;;;;6.70;99.90;;;;;;5073007;28;19928;-78
2022/03/05 10:34:30;;;;;;;;;;;6.90;99.90;;;;;;5073248;28;20334;-77
2022/03/05 10:36:57;;;;;;;;;;;7.10;99.90;;;;;;5072899;28;19961;-78
2022/03/05 10:39:25;;;;;;;;;;;7.20;99.90;;;;;;5055843;28;19924;-78
2022/03/05 10:41:52;;;;;;;;;;;7.30;99.90;;;;;;5073157;28;19935;-78
2022/03/05 10:44:19;;;;;;;;;;;7.50;99.90;;;;;;5056396;28;20007;-77
2022/03/05 10:46:47;;;;;;;;;;;7.60;99.90;;;;;;5073103;28;19928;-79
2022/03/05 10:49:17;;;;;;;;;;;7.60;99.90;;;;;;5056050;28;19924;-77
2022/03/05 10:51:45;;;;;;;;;;;7.80;99.90;;;;;;5072830;28;20394;-78
2022/03/05 10:54:12;;;;;;;;;;;7.80;99.90;;;;;;5055853;28;20395;-77
2022/03/05 10:56:39;;;;;;;;;;;7.80;99.90;;;;;;5055769;28;19952;-78
2022/03/05 10:59:07;;;;;;;;;;;8.00;99.90;;;;;;5055822;28;20046;-78
2022/03/05 11:01:36;;;;;;;;;;;8.20;99.90;;;;;;5055776;28;19982;-78
2022/03/05 11:04:03;;;;;;;;;;;;;;;;;;5056376;28;19924;-80
2022/03/05 11:06:32;;;;;;;;;;;9.80;99.90;;;;;;5055634;28;20272;-77
2022/03/05 11:08:59;;;;;;;;;;;14.70;99.90;;;;;;5060195;28;19928;-75
2022/03/05 11:11:26;;;;;;;;;;;18.20;99.90;;;;;;5064247;28;19924;-78
2022/03/05 11:13:53;;;;;;;;;;;21.20;99.90;;;;;;5066496;28;20391;-76
2022/03/05 11:16:21;;;;;;;;;;;23.30;95.90;;;;;;5064691;28;19930;-74
2022/03/05 11:18:48;;;;;;;;;;;24.20;95.50;;;;;;5063181;28;19943;-76
2022/03/05 11:21:16;;;;;;;;;;;25.20;93.50;;;;;;5055237;28;19928;-77
2022/03/05 11:23:44;;;;;;;;;;;25.30;93.40;;;;;;5055032;28;19928;-75
2022/03/05 11:26:13;;;;;;;;;;;25.50;91.30;;;;;;5056206;28;19931;-77
2022/03/05 11:28:40;;;;;;;;;;;24.20;90.00;;;;;;5068766;28;20292;-75
2022/03/05 11:31:15;;;;;;;;;;;24.10;90.30;;;;;;5074723;28;20061;-77
2022/03/05 11:33:43;;;;;;;;;;;24.70;90.10;;;;;;5075174;28;19975;-77
2022/03/05 11:36:23;;;;;;;;;;;24.80;89.80;;;;;;5075198;28;19955;-77
2022/03/05 11:39:05;;;;;;;;;;;24.90;89.00;;;;;;5074540;28;19924;-75
2022/03/05 11:41:32;;;;;;;;;;;27.00;88.50;;;;;;5075197;28;19928;-77
2022/03/05 11:44:12;;;;;;;;;;;27.00;86.90;;;;;;5075011;28;19973;-77
2022/03/05 11:46:39;;;;;;;;;;;25.70;84.60;;;;;;5074802;28;19925;-76
2022/03/05 11:49:06;;;;;;;;;;;25.90;84.30;;;;;;5074775;28;19931;-77
2022/03/05 11:51:33;;;;;;;;;;;27.00;85.10;;;;;;5075162;28;19981;-76
2022/03/05 11:54:05;;;;;;;;;;;27.70;84.40;;;;;;5075059;28;19963;-76
2022/03/05 11:56:32;;;;;;;;;;;27.30;83.90;;;;;;5074746;28;19924;-78
2022/03/05 11:59:19;;;;;;;;;;;27.10;83.10;;;;;;5065600;28;19932;-76
2022/03/05 12:01:51;;;;;;;;;;;27.60;83.70;;;;;;5065240;28;19924;-76
2022/03/05 12:04:23;;;;;;;;;;;27.70;80.20;;;;;;5058408;28;20391;-76
2022/03/05 12:07:00;;;;;;;;;;;27.60;80.60;;;;;;5058339;28;19924;-72
2022/03/05 12:09:34;;;;;;;;;;;28.60;81.10;;;;;;5056627;28;19944;-72
2022/03/05 12:12:02;;;;;;;;;;;27.60;79.10;;;;;;5076516;28;19970;-76
2022/03/05 12:14:47;;;;;;;;;;;26.90;80.70;;;;;;5075385;28;19924;-77
2022/03/05 12:17:14;;;;;;;;;;;27.00;79.90;;;;;;5075460;28;19928;-78
2022/03/05 12:19:45;;;;;;;;;;;27.20;80.30;;;;;;5073593;28;20383;-77
2022/03/05 12:22:13;;;;;;;;;;;26.40;78.40;;;;;;5080743;28;19931;-76
2022/03/05 12:24:42;;;;;;;;;;;27.50;79.10;;;;;;5084335;28;19924;-78
2022/03/05 12:27:13;;;;;;;;;;;27.30;78.60;;;;;;5078128;28;19931;-79
2022/03/05 12:29:46;;;;;;;;;;;27.80;78.10;;;;;;5081849;28;19928;-79
2022/03/05 12:32:14;;;;;;;;;;;27.00;76.60;;;;;;5070228;28;19928;-77
2022/03/05 12:34:40;;;;;;;;;;;26.00;77.30;;;;;;5054452;28;19924;-80
2022/03/05 12:37:07;;;;;;;;;;;27.20;78.20;;;;;;5065129;28;19969;-75
2022/03/05 12:39:35;;;;;;;;;;;27.90;77.70;;;;;;5060223;28;19956;-78
2022/03/05 12:42:06;;;;;;;;;;;28.30;78.00;;;;;;5062124;28;20341;-76
2022/03/05 12:44:34;;;;;;;;;;;27.60;75.10;;;;;;5053881;28;19931;-79
2022/03/05 12:47:01;;;;;;;;;;;26.10;74.80;;;;;;5053710;28;19928;-78
2022/03/05 12:49:28;;;;;;;;;;;26.10;75.60;;;;;;5053689;28;19924;-78
2022/03/05 12:51:55;;;;;;;;;;;27.00;76.90;;;;;;5053615;28;19924;-79
2022/03/05 12:54:22;;;;;;;;;;;26.80;75.70;;;;;;5053838;28;19924;-77
2022/03/05 12:56:54;;;;;;;;;;;26.80;73.40;;;;;;5053779;28;19928;-78
2022/03/05 12:59:22;;;;;;;;;;;27.00;73.60;;;;;;5053151;28;19924;-77
2022/03/05 13:01:51;;;;;;;;;;;25.90;73.50;;;;;;5064325;28;19931;-75
2022/03/05 13:04:18;;;;;;;;;;;26.20;73.50;;;;;;5053415;28;19967;-77
2022/03/05 13:06:46;;;;;;;;;;;26.30;74.00;;;;;;5053743;28;19925;-74
2022/03/05 13:09:15;;;;;;;;;;;25.80;73.00;;;;;;5053381;28;19925;-74
2022/03/05 13:11:42;;;;;;;;;;;25.50;71.80;;;;;;5053951;28;19925;-76
2022/03/05 13:14:09;;;;;;;;;;;26.00;71.60;;;;;;5056497;28;19924;-78
2022/03/05 13:16:41;;;;;;;;;;;25.20;72.10;;;;;;5053645;28;19929;-77
2022/03/05 13:19:09;;;;;;;;;;;24.30;71.50;;;;;;5052976;28;19974;-77
2022/03/05 13:21:39;;;;;;;;;;;24.10;72.70;;;;;;5053258;28;20388;-79
2022/03/05 13:24:06;;;;;;;;;;;23.90;71.40;;;;;;5064597;28;20014;-76
2022/03/05 13:26:33;;;;;;;;;;;23.90;72.60;;;;;;5072998;28;19930;-77
2022/03/05 13:29:00;;;;;;;;;;;24.20;72.30;;;;;;5073229;28;19932;-78
2022/03/05 13:31:27;;;;;;;;;;;25.00;72.10;;;;;;5060550;28;19970;-77
2022/03/05 13:33:56;;;;;;;;;;;25.30;73.20;;;;;;5053317;28;19979;-78
2022/03/05 13:36:24;;;;;;;;;;;24.60;71.80;;;;;;5053289;28;20007;-78
2022/03/05 13:38:51;;;;;;;;;;;24.00;71.30;;;;;;5052876;28;20012;-77
2022/03/05 13:41:20;;;;;;;;;;;23.10;72.40;;;;;;5053992;28;20023;-79
2022/03/05 13:43:47;;;;;;;;;;;23.30;72.30;;;;;;5059780;28;19924;-77
2022/03/05 13:46:16;;;;;;;;;;;24.00;72.80;;;;;;5059894;28;20002;-78
2022/03/05 13:48:46;;;;;;;;;;;23.10;70.90;;;;;;5060021;28;19924;-78
2022/03/05 13:51:16;;;;;;;;;;;22.60;70.40;;;;;;5063658;28;19985;-78
2022/03/05 13:53:44;;;;;;;;;;;22.30;70.40;;;;;;5080090;28;20022;-78
2022/03/05 13:56:13;;;;;;;;;;;22.10;69.30;;;;;;5080190;28;19924;-79
2022/03/05 13:58:40;;;;;;;;;;;21.50;71.00;;;;;;5080365;28;19924;-78
2022/03/05 14:01:13;;;;;;;;;;;21.90;71.60;;;;;;5079839;28;19939;-77
2022/03/05 14:03:40;;;;;;;;;;;23.10;71.60;;;;;;5079675;28;19924;-77
2022/03/05 14:06:14;;;;;;;;;;;22.30;69.20;;;;;;5075219;28;19924;-77
2022/03/05 14:08:48;;;;;;;;;;;22.70;70.40;;;;;;5071568;28;19924;-75
2022/03/05 14:11:15;;;;;;;;;;;23.00;70.90;;;;;;5074405;28;19928;-78
2022/03/05 14:13:46;;;;;;;;;;;22.70;70.20;;;;;;5063932;28;19924;-78
2022/03/05 14:16:33;;;;;;;;;;;22.00;69.80;;;;;;5059758;28;19931;-78
2022/03/05 14:19:00;;;;;;;;;;;22.30;70.90;;;;;;5059166;28;19924;-77
2022/03/05 14:21:28;;;;;;;;;;;21.30;69.10;;;;;;5059919;28;19925;-76
2022/03/05 14:23:55;;;;;;;;;;;20.60;69.20;;;;;;5060187;28;19928;-77
2022/03/05 14:26:32;;;;;;;;;;;20.70;69.20;;;;;;5059371;28;20031;-76
2022/03/05 14:28:59;;;;;;;;;;;20.60;68.40;;;;;;5057556;28;19928;-77
2022/03/05 14:31:25;;;;;;;;;;;20.80;69.00;;;;;;5059302;28;19924;-78
2022/03/05 14:33:52;;;;;;;;;;;20.20;68.80;;;;;;5058643;28;20334;-78